Time;durP1;ratioP1;P1;durP2;ratioP2;P2;SDS_P1;SDS_P2;PMS_P1;PMS_P2;Temp;Humidity;BMP_temperature;BMP_pressure;BME280_temperature;BME280_humidity;BME280_pressure;Samples;Min_cycle;Max_cycle;Signal;HPM_P1;HPM_P2
2022/01/01 00:02:23;;;;;;;47.90;17.38;;;;;;;;;;5071377;28;20090;-63
2022/01/01 00:04:49;;;;;;;49.70;18.55;;;;;;;;;;5071510;28;20040;-63
2022/01/01 00:07:16;;;;;;;55.40;18.33;;;;;;;;;;5070817;28;20040;-63
2022/01/01 00:09:45;;;;;;;56.53;16.65;;;;;;;;;;5071761;28;20178;-63
2022/01/01 00:12:12;;;;;;;57.05;18.40;;;;;;;;;;5071572;28;20094;-63
2022/01/01 00:14:38;;;;;;;56.17;19.83;;;;;;;;;;5070843;28;20071;-63
2022/01/01 00:17:05;;;;;;;57.92;19.73;;;;;;;;;;5071651;28;20399;-63
2022/01/01 00:19:32;;;;;;;55.28;20.00;;;;;;;;;;5071463;28;20445;-63
2022/01/01 00:22:02;;;;;;;53.35;18.15;;;;;;;;;;5070693;28;20048;-63
2022/01/01 00:24:28;;;;;;;50.78;18.00;;;;;;;;;;5070734;28;20079;-63
2022/01/01 00:26:54;;;;;;;52.65;20.55;;;;;;;;;;5071231;28;20041;-63
2022/01/01 00:29:20;;;;;;;54.58;17.98;;;;;;;;;;5070306;28;20070;-63
2022/01/01 00:31:46;;;;;;;56.85;18.10;;;;;;;;;;5071260;28;20325;-63
2022/01/01 00:34:12;;;;;;;50.80;16.48;;;;;;;;;;5071026;28;20398;-63
2022/01/01 00:36:38;;;;;;;48.47;17.45;;;;;;;;;;5070284;28;20445;-63
2022/01/01 00:39:04;;;;;;;57.67;17.45;;;;;;;;;;5071041;28;20424;-63
2022/01/01 00:41:30;;;;;;;46.95;17.30;;;;;;;;;;5070941;28;20493;-63
2022/01/01 00:43:56;;;;;;;51.35;19.10;;;;;;;;;;5070335;28;20459;-63
2022/01/01 00:46:22;;;;;;;60.33;20.75;;;;;;;;;;5070930;28;20101;-63
2022/01/01 00:48:53;;;;;;;61.85;22.58;;;;;;;;;;5070828;28;20037;-63
2022/01/01 00:51:19;;;;;;;59.40;20.98;;;;;;;;;;5070046;28;20514;-63
2022/01/01 00:53:45;;;;;;;58.20;21.55;;;;;;;;;;5070696;28;20487;-63
2022/01/01 00:56:11;;;;;;;59.20;21.15;;;;;;;;;;5070877;28;20178;-63
2022/01/01 00:58:37;;;;;;;54.30;20.50;;;;;;;;;;5069376;28;20039;-63
2022/01/01 01:01:03;;;;;;;55.35;20.75;;;;;;;;;;5070451;28;20047;-63
2022/01/01 01:03:29;;;;;;;57.28;19.00;;;;;;;;;;5070185;28;20097;-63
2022/01/01 01:05:55;;;;;;;57.70;20.67;;;;;;;;;;5068350;28;20044;-63
2022/01/01 01:08:21;;;;;;;49.70;19.55;;;;;;;;;;5070766;28;20479;-63
2022/01/01 01:10:48;;;;;;;61.38;19.58;;;;;;;;;;5070445;28;20123;-63
2022/01/01 01:13:16;;;;;;;58.45;21.35;;;;;;;;;;5069515;28;20047;-63
2022/01/01 01:15:43;;;;;;;55.60;20.05;;;;;;;;;;5070292;28;20483;-63
2022/01/01 01:18:09;;;;;;;58.55;21.45;;;;;;;;;;5070154;28;20128;-63
2022/01/01 01:20:36;;;;;;;53.67;22.30;;;;;;;;;;5069844;28;20495;-63
2022/01/01 01:23:02;;;;;;;64.50;28.02;;;;;;;;;;5070055;28;20462;-63
2022/01/01 01:25:38;;;;;;;71.93;29.40;;;;;;;;;;5068122;28;20055;-63
2022/01/01 01:28:08;;;;;;;75.95;30.35;;;;;;;;;;5049450;28;20048;-63
2022/01/01 01:30:37;;;;;;;67.55;30.60;;;;;;;;;;5050382;28;20037;-63
2022/01/01 01:33:03;;;;;;;86.10;36.17;;;;;;;;;;5049868;28;20067;-63
2022/01/01 01:35:29;;;;;;;89.43;38.13;;;;;;;;;;5081923;28;20120;-63
2022/01/01 01:37:55;;;;;;;78.43;38.78;;;;;;;;;;5049925;28;20470;-63
2022/01/01 01:40:22;;;;;;;83.97;36.50;;;;;;;;;;5050218;28;20266;-63
2022/01/01 01:42:48;;;;;;;91.28;39.03;;;;;;;;;;5049500;28;20450;-63
2022/01/01 01:45:19;;;;;;;89.53;44.33;;;;;;;;;;5050163;28;20043;-63
2022/01/01 01:47:46;;;;;;;95.15;41.80;;;;;;;;;;5050228;28;20136;-63
2022/01/01 01:50:12;;;;;;;79.38;37.85;;;;;;;;;;5049251;28;20102;-63
2022/01/01 01:52:39;;;;;;;85.63;36.58;;;;;;;;;;5050096;28;20033;-63
2022/01/01 01:55:07;;;;;;;78.03;36.92;;;;;;;;;;5050098;28;20239;-63
2022/01/01 01:57:39;;;;;;;81.15;35.08;;;;;;;;;;5049523;28;20437;-63
2022/01/01 02:00:08;;;;;;;87.67;34.37;;;;;;;;;;5050031;28;20048;-63
2022/01/01 02:02:34;;;;;;;81.60;33.10;;;;;;;;;;5049993;28;20087;-63
2022/01/01 02:05:00;;;;;;;101.50;44.03;;;;;;;;;;5049001;28;20076;-63
2022/01/01 02:07:27;;;;;;;96.07;45.38;;;;;;;;;;5049848;28;20041;-63
2022/01/01 02:09:53;;;;;;;102.47;51.83;;;;;;;;;;5053617;28;20040;-63
2022/01/01 02:12:22;;;;;;;97.22;45.25;;;;;;;;;;5053242;28;20195;-63
2022/01/01 02:15:08;;;;;;;99.82;41.95;;;;;;;;;;5053902;28;20048;-63
2022/01/01 02:17:34;;;;;;;89.22;36.70;;;;;;;;;;5053603;28;20047;-63
2022/01/01 02:20:11;;;;;;;80.40;35.38;;;;;;;;;;5053044;28;20091;-63
2022/01/01 02:22:40;;;;;;;83.07;34.67;;;;;;;;;;5053539;28;20498;-63
2022/01/01 02:25:06;;;;;;;89.00;34.97;;;;;;;;;;5053224;28;20412;-63
2022/01/01 02:27:32;;;;;;;85.60;36.08;;;;;;;;;;5071880;28;20040;-63
2022/01/01 02:29:58;;;;;;;85.25;36.33;;;;;;;;;;5073176;28;20040;-63
2022/01/01 02:32:24;;;;;;;92.80;37.65;;;;;;;;;;5073527;28;20422;-63
2022/01/01 02:34:50;;;;;;;88.65;38.33;;;;;;;;;;5072813;28;20044;-63
2022/01/01 02:37:16;;;;;;;90.88;38.85;;;;;;;;;;5073252;28;20383;-63
2022/01/01 02:39:42;;;;;;;84.80;40.15;;;;;;;;;;5073368;28;20067;-63
2022/01/01 02:42:11;;;;;;;98.25;41.58;;;;;;;;;;5072609;28;20448;-63
2022/01/01 02:44:37;;;;;;;90.97;41.30;;;;;;;;;;5073136;28;20052;-63
2022/01/01 02:47:03;;;;;;;106.85;43.13;;;;;;;;;;5073184;28;20056;-63
2022/01/01 02:49:29;;;;;;;104.75;43.22;;;;;;;;;;5072336;28;20051;-63
2022/01/01 02:51:55;;;;;;;91.93;41.45;;;;;;;;;;5072866;28;20793;-63
2022/01/01 02:54:21;;;;;;;97.20;41.80;;;;;;;;;;5073071;28;20041;-63
2022/01/01 02:56:48;;;;;;;101.20;41.85;;;;;;;;;;5072331;28;20475;-63
2022/01/01 02:59:14;;;;;;;88.43;40.80;;;;;;;;;;5073043;28;20491;-63
2022/01/01 03:01:40;;;;;;;94.22;41.25;;;;;;;;;;5072786;28;20033;-63
2022/01/01 03:04:06;;;;;;;109.10;45.13;;;;;;;;;;5072278;28;20044;-63
2022/01/01 03:06:32;;;;;;;101.90;45.78;;;;;;;;;;5072881;28;20043;-63
2022/01/01 03:08:58;;;;;;;105.50;48.22;;;;;;;;;;5072823;28;20039;-63
2022/01/01 03:11:24;;;;;;;109.07;50.33;;;;;;;;;;5072138;28;20041;-63
2022/01/01 03:13:50;;;;;;;107.28;49.20;;;;;;;;;;5072653;28;20033;-63
2022/01/01 03:16:16;;;;;;;106.75;51.47;;;;;;;;;;5072753;28;20440;-63
2022/01/01 03:18:42;;;;;;;110.18;54.22;;;;;;;;;;5072061;28;20488;-63
2022/01/01 03:21:08;;;;;;;116.63;56.58;;;;;;;;;;5071874;28;20119;-63
2022/01/01 03:23:34;;;;;;;122.10;56.17;;;;;;;;;;5072327;28;20157;-63
2022/01/01 03:26:00;;;;;;;118.22;57.88;;;;;;;;;;5065180;28;20084;-63
2022/01/01 03:28:27;;;;;;;117.80;58.35;;;;;;;;;;5052662;28;20055;-63
2022/01/01 03:30:53;;;;;;;121.97;58.55;;;;;;;;;;5052572;28;20400;-63
2022/01/01 03:33:19;;;;;;;119.60;58.65;;;;;;;;;;5051942;28;20075;-63
2022/01/01 03:35:47;;;;;;;120.25;60.28;;;;;;;;;;5052272;28;20510;-63
2022/01/01 03:38:13;;;;;;;135.43;62.78;;;;;;;;;;5052039;28;20045;-63
2022/01/01 03:40:39;;;;;;;122.30;60.80;;;;;;;;;;5051904;28;20041;-63
2022/01/01 03:43:05;;;;;;;118.03;58.92;;;;;;;;;;5051443;28;20048;-63
2022/01/01 03:45:31;;;;;;;125.97;62.75;;;;;;;;;;5052195;28;20502;-63
2022/01/01 03:47:57;;;;;;;129.77;62.60;;;;;;;;;;5052369;28;20044;-63
2022/01/01 03:50:23;;;;;;;132.50;64.35;;;;;;;;;;5051422;28;20525;-63
2022/01/01 03:52:49;;;;;;;121.80;62.60;;;;;;;;;;5052032;28;20376;-63
2022/01/01 03:55:15;;;;;;;129.35;62.30;;;;;;;;;;5052115;28;20048;-63
2022/01/01 03:57:41;;;;;;;130.57;64.05;;;;;;;;;;5051646;28;20383;-63
2022/01/01 04:00:11;;;;;;;119.35;62.55;;;;;;;;;;5051805;28;20451;-63
2022/01/01 04:02:37;;;;;;;132.70;65.68;;;;;;;;;;5051491;28;20513;-63
2022/01/01 04:05:04;;;;;;;123.57;65.47;;;;;;;;;;5051172;28;20129;-63
2022/01/01 04:07:31;;;;;;;125.20;61.38;;;;;;;;;;5051590;28;20116;-63
2022/01/01 04:09:57;;;;;;;123.95;62.88;;;;;;;;;;5051857;28;20064;-63
2022/01/01 04:12:23;;;;;;;124.15;62.70;;;;;;;;;;5050853;28;20037;-63
2022/01/01 04:14:49;;;;;;;117.93;59.22;;;;;;;;;;5051323;28;20320;-63
2022/01/01 04:17:15;;;;;;;116.80;58.40;;;;;;;;;;5051554;28;20049;-63
2022/01/01 04:19:41;;;;;;;127.80;60.13;;;;;;;;;;5050608;28;20128;-63
2022/01/01 04:22:08;;;;;;;124.80;60.85;;;;;;;;;;5051269;28;20449;-63
2022/01/01 04:24:35;;;;;;;128.07;60.42;;;;;;;;;;5050925;28;20057;-63
2022/01/01 04:27:01;;;;;;;128.07;62.00;;;;;;;;;;5065404;28;20102;-63
2022/01/01 04:29:27;;;;;;;127.80;60.58;;;;;;;;;;5069917;28;20044;-63
2022/01/01 04:31:53;;;;;;;120.57;60.42;;;;;;;;;;5102831;28;20072;-63
2022/01/01 04:34:19;;;;;;;125.70;59.50;;;;;;;;;;5070527;28;20067;-63
2022/01/01 04:36:53;;;;;;;129.15;62.50;;;;;;;;;;5071199;28;20036;-63
2022/01/01 04:39:19;;;;;;;127.03;60.50;;;;;;;;;;5071202;28;20399;-63
2022/01/01 04:41:45;;;;;;;125.30;61.70;;;;;;;;;;5070572;28;20032;-63
2022/01/01 04:44:11;;;;;;;125.57;58.88;;;;;;;;;;5070992;28;20483;-63
2022/01/01 04:46:37;;;;;;;122.57;60.08;;;;;;;;;;5070883;28;20101;-63
2022/01/01 04:49:03;;;;;;;120.43;59.63;;;;;;;;;;5070258;28;20040;-63
2022/01/01 04:51:29;;;;;;;125.97;58.08;;;;;;;;;;5070829;28;20041;-63
2022/01/01 04:53:59;;;;;;;118.97;55.95;;;;;;;;;;5070905;28;20044;-63
2022/01/01 04:56:27;;;;;;;128.98;57.78;;;;;;;;;;5070411;28;20087;-63
2022/01/01 04:58:53;;;;;;;119.32;57.92;;;;;;;;;;5069435;28;20040;-63
2022/01/01 05:01:19;;;;;;;120.47;58.05;;;;;;;;;;5071035;28;20169;-63
2022/01/01 05:03:45;;;;;;;114.93;56.65;;;;;;;;;;5070058;28;20051;-63
2022/01/01 05:06:12;;;;;;;115.75;54.53;;;;;;;;;;5070871;28;20048;-63
2022/01/01 05:08:38;;;;;;;114.95;55.92;;;;;;;;;;5070713;28;20032;-63
2022/01/01 05:11:05;;;;;;;116.45;54.92;;;;;;;;;;5070042;28;20063;-63
2022/01/01 05:13:31;;;;;;;117.80;53.00;;;;;;;;;;5070459;28;20119;-63
2022/01/01 05:15:57;;;;;;;116.53;53.95;;;;;;;;;;5070628;28;20125;-63
2022/01/01 05:18:23;;;;;;;111.15;50.15;;;;;;;;;;5069573;28;20166;-63
2022/01/01 05:20:49;;;;;;;110.53;51.03;;;;;;;;;;5070743;28;20082;-63
2022/01/01 05:23:15;;;;;;;112.28;50.78;;;;;;;;;;5070200;28;20041;-63
2022/01/01 05:25:42;;;;;;;112.10;49.90;;;;;;;;;;5069609;28;20051;-63
2022/01/01 05:28:08;;;;;;;106.50;48.00;;;;;;;;;;5070418;28;20044;-63
2022/01/01 05:30:34;;;;;;;103.40;48.00;;;;;;;;;;5070351;28;20044;-63
2022/01/01 05:33:00;;;;;;;102.30;45.55;;;;;;;;;;5069738;28;20045;-63
2022/01/01 05:35:26;;;;;;;102.30;46.10;;;;;;;;;;5070593;28;20040;-63
2022/01/01 05:37:52;;;;;;;91.85;40.92;;;;;;;;;;5070181;28;20036;-63
2022/01/01 05:40:19;;;;;;;93.05;40.13;;;;;;;;;;5069615;28;20051;-63
2022/01/01 05:42:45;;;;;;;101.05;39.65;;;;;;;;;;5069897;28;20047;-63
2022/01/01 05:45:11;;;;;;;92.40;39.92;;;;;;;;;;5070313;28;20090;-63
2022/01/01 05:47:37;;;;;;;100.00;39.10;;;;;;;;;;5069657;28;20528;-63
2022/01/01 05:50:03;;;;;;;91.53;37.38;;;;;;;;;;5070166;28;20132;-63
2022/01/01 05:52:29;;;;;;;92.05;36.22;;;;;;;;;;5070103;28;20048;-63
2022/01/01 05:54:55;;;;;;;93.03;35.92;;;;;;;;;;5069459;28;20044;-63
2022/01/01 05:57:21;;;;;;;87.68;34.63;;;;;;;;;;5070145;28;20033;-63
2022/01/01 05:59:47;;;;;;;82.18;31.98;;;;;;;;;;5070203;28;20041;-63
2022/01/01 06:02:13;;;;;;;80.80;29.65;;;;;;;;;;5069421;28;20044;-63
2022/01/01 06:04:39;;;;;;;85.63;29.17;;;;;;;;;;5070152;28;20072;-63
2022/01/01 06:07:07;;;;;;;85.97;29.45;;;;;;;;;;5069812;28;20080;-63
2022/01/01 06:09:33;;;;;;;73.07;26.92;;;;;;;;;;5069376;28;20045;-63
2022/01/01 06:11:59;;;;;;;76.90;27.58;;;;;;;;;;5070067;28;20044;-63
2022/01/01 06:14:25;;;;;;;62.63;24.42;;;;;;;;;;5069879;28;20534;-63
2022/01/01 06:16:51;;;;;;;72.97;25.88;;;;;;;;;;5069306;28;20040;-63
2022/01/01 06:19:17;;;;;;;78.80;27.15;;;;;;;;;;5069925;28;20044;-63
2022/01/01 06:21:43;;;;;;;66.72;25.73;;;;;;;;;;5069695;28;20177;-63
2022/01/01 06:24:09;;;;;;;67.88;24.65;;;;;;;;;;5068711;28;20131;-63
2022/01/01 06:26:35;;;;;;;66.13;26.23;;;;;;;;;;5069725;28;20509;-63
2022/01/01 06:29:01;;;;;;;64.13;25.35;;;;;;;;;;5069826;28;20039;-63
2022/01/01 06:31:28;;;;;;;85.38;26.30;;;;;;;;;;5069298;28;20090;-63
2022/01/01 06:33:54;;;;;;;68.13;25.42;;;;;;;;;;5069687;28;20041;-63
2022/01/01 06:36:20;;;;;;;74.00;27.67;;;;;;;;;;5069755;28;20036;-63
2022/01/01 06:38:46;;;;;;;70.40;26.38;;;;;;;;;;5069008;28;20534;-63
2022/01/01 06:41:12;;;;;;;68.57;26.50;;;;;;;;;;5069673;28;20450;-63
2022/01/01 06:43:39;;;;;;;70.93;26.95;;;;;;;;;;5069399;28;20052;-63
2022/01/01 06:46:06;;;;;;;83.90;26.70;;;;;;;;;;5069092;28;20059;-63
2022/01/01 06:48:32;;;;;;;87.93;26.52;;;;;;;;;;5069726;28;20093;-63
2022/01/01 06:50:58;;;;;;;75.97;26.77;;;;;;;;;;5069537;28;20562;-63
2022/01/01 06:53:24;;;;;;;70.82;25.55;;;;;;;;;;5068739;28;20123;-63
2022/01/01 06:55:50;;;;;;;76.60;25.48;;;;;;;;;;5070985;28;20040;-63
2022/01/01 06:58:16;;;;;;;67.07;24.08;;;;;;;;;;5073058;28;20067;-63
2022/01/01 07:00:42;;;;;;;74.60;25.90;;;;;;;;;;5072477;28;20398;-63
2022/01/01 07:03:08;;;;;;;76.38;25.30;;;;;;;;;;5073171;28;20036;-63
2022/01/01 07:05:34;;;;;;;69.60;24.98;;;;;;;;;;5073032;28;20072;-63
2022/01/01 07:08:00;;;;;;;74.70;25.58;;;;;;;;;;5072024;28;20115;-63
2022/01/01 07:10:26;;;;;;;66.22;24.98;;;;;;;;;;5072679;28;20172;-63
2022/01/01 07:12:52;;;;;;;73.07;25.92;;;;;;;;;;5072779;28;20037;-63
2022/01/01 07:15:18;;;;;;;66.53;24.85;;;;;;;;;;5072351;28;20059;-63
2022/01/01 07:17:44;;;;;;;72.80;23.60;;;;;;;;;;5072925;28;20119;-63
2022/01/01 07:20:11;;;;;;;58.88;24.25;;;;;;;;;;5072753;28;20036;-63
2022/01/01 07:22:41;;;;;;;62.53;23.00;;;;;;;;;;5072596;28;20109;-63
2022/01/01 07:25:07;;;;;;;63.88;23.45;;;;;;;;;;5071808;28;20061;-63
2022/01/01 07:27:33;;;;;;;80.20;23.48;;;;;;;;;;5072483;28;20044;-63
2022/01/01 07:29:59;;;;;;;52.17;21.77;;;;;;;;;;5072339;28;20391;-63
2022/01/01 07:32:25;;;;;;;61.10;23.27;;;;;;;;;;5071632;28;20055;-63
2022/01/01 07:34:51;;;;;;;55.50;22.55;;;;;;;;;;5072079;28;20044;-63
2022/01/01 07:37:17;;;;;;;65.90;23.75;;;;;;;;;;5071931;28;20076;-63
2022/01/01 07:39:43;;;;;;;55.08;22.70;;;;;;;;;;5071648;28;20133;-63
2022/01/01 07:42:09;;;;;;;50.92;22.80;;;;;;;;;;5072594;28;20047;-63
2022/01/01 07:44:35;;;;;;;60.55;23.77;;;;;;;;;;5071687;28;20131;-63
2022/01/01 07:47:01;;;;;;;57.60;23.45;;;;;;;;;;5071637;28;20123;-63
2022/01/01 07:49:27;;;;;;;60.72;24.85;;;;;;;;;;5053799;28;20076;-63
2022/01/01 07:51:53;;;;;;;60.80;24.33;;;;;;;;;;5072125;28;20129;-63
2022/01/01 07:54:19;;;;;;;55.80;24.40;;;;;;;;;;5071283;28;20029;-63
2022/01/01 07:56:45;;;;;;;60.70;24.52;;;;;;;;;;5072059;28;20040;-63
2022/01/01 07:59:11;;;;;;;59.67;24.73;;;;;;;;;;5071717;28;20390;-63
2022/01/01 08:01:37;;;;;;;58.97;24.27;;;;;;;;;;5070115;28;20049;-63
2022/01/01 08:04:03;;;;;;;58.30;24.45;;;;;;;;;;5071975;28;20044;-63
2022/01/01 08:06:30;;;;;;;59.38;25.60;;;;;;;;;;5071511;28;20093;-63
2022/01/01 08:08:56;;;;;;;62.63;25.83;;;;;;;;;;5070856;28;20044;-63
2022/01/01 08:11:22;;;;;;;59.25;25.63;;;;;;;;;;5071504;28;20051;-63
2022/01/01 08:13:48;;;;;;;67.97;27.52;;;;;;;;;;5071484;28;20040;-63
2022/01/01 08:16:14;;;;;;;69.22;26.60;;;;;;;;;;5071029;28;20037;-63
2022/01/01 08:18:40;;;;;;;60.85;25.50;;;;;;;;;;5071747;28;20086;-63
2022/01/01 08:21:06;;;;;;;57.45;25.95;;;;;;;;;;5071564;28;20052;-63
2022/01/01 08:23:32;;;;;;;69.35;27.17;;;;;;;;;;5070295;28;20560;-63
2022/01/01 08:25:58;;;;;;;57.78;24.65;;;;;;;;;;5071143;28;20052;-63
2022/01/01 08:28:24;;;;;;;59.38;25.70;;;;;;;;;;5071379;28;20040;-63
2022/01/01 08:30:50;;;;;;;56.00;24.83;;;;;;;;;;5070739;28;20083;-63
2022/01/01 08:33:16;;;;;;;59.22;24.10;;;;;;;;;;5071327;28;20048;-63
2022/01/01 08:35:42;;;;;;;62.53;26.00;;;;;;;;;;5071162;28;20475;-63
2022/01/01 08:38:08;;;;;;;63.15;26.58;;;;;;;;;;5070111;28;20036;-63
2022/01/01 08:40:34;;;;;;;56.78;25.10;;;;;;;;;;5071119;28;20044;-63
2022/01/01 08:43:01;;;;;;;63.45;25.40;;;;;;;;;;5071046;28;20036;-63
2022/01/01 08:45:27;;;;;;;64.35;25.60;;;;;;;;;;5070019;28;20076;-63
2022/01/01 08:47:53;;;;;;;63.13;26.75;;;;;;;;;;5070726;28;20095;-63
2022/01/01 08:50:19;;;;;;;59.72;26.40;;;;;;;;;;5071042;28;20395;-63
2022/01/01 08:52:45;;;;;;;64.68;27.02;;;;;;;;;;5070301;28;20033;-63
2022/01/01 08:55:11;;;;;;;64.03;26.80;;;;;;;;;;5070975;28;20037;-63
2022/01/01 08:57:38;;;;;;;61.45;27.98;;;;;;;;;;5070827;28;20475;-63
2022/01/01 09:00:06;;;;;;;63.97;28.08;;;;;;;;;;5070231;28;20036;-63
2022/01/01 09:02:32;;;;;;;62.80;26.73;;;;;;;;;;5070754;28;20125;-63
2022/01/01 09:04:58;;;;;;;59.50;28.30;;;;;;;;;;5070925;28;20060;-63
2022/01/01 09:07:28;;;;;;;56.50;27.40;;;;;;;;;;5069878;28;20044;-63
2022/01/01 09:09:54;;;;;;;62.28;29.33;;;;;;;;;;5070394;28;20127;-63
2022/01/01 09:12:20;;;;;;;59.83;27.45;;;;;;;;;;5070447;28;20089;-63
2022/01/01 09:14:46;;;;;;;64.55;27.98;;;;;;;;;;5069723;28;20044;-63
2022/01/01 09:17:12;;;;;;;58.60;28.77;;;;;;;;;;5070636;28;20047;-64
2022/01/01 09:19:38;;;;;;;62.55;27.52;;;;;;;;;;5069970;28;20048;-63
2022/01/01 09:22:04;;;;;;;60.03;27.10;;;;;;;;;;5069882;28;20090;-63
2022/01/01 09:24:30;;;;;;;62.80;27.95;;;;;;;;;;5069899;28;20061;-63
2022/01/01 09:26:56;;;;;;;55.40;25.77;;;;;;;;;;5070179;28;20090;-63
2022/01/01 09:29:22;;;;;;;62.85;27.08;;;;;;;;;;5069576;28;20040;-63
2022/01/01 09:31:48;;;;;;;59.92;26.83;;;;;;;;;;5068949;28;20062;-63
2022/01/01 09:34:14;;;;;;;57.17;25.15;;;;;;;;;;5070433;28;20045;-63
2022/01/01 09:36:40;;;;;;;60.22;26.27;;;;;;;;;;5068037;28;20045;-63
2022/01/01 09:39:07;;;;;;;45.05;24.05;;;;;;;;;;5070315;28;20087;-63
2022/01/01 09:41:33;;;;;;;51.58;23.48;;;;;;;;;;5070593;28;20566;-63
2022/01/01 09:43:59;;;;;;;52.90;22.50;;;;;;;;;;5069413;28;20131;-63
2022/01/01 09:46:28;;;;;;;44.55;21.80;;;;;;;;;;5070227;28;20168;-63
2022/01/01 09:48:55;;;;;;;50.67;20.92;;;;;;;;;;5070289;28;20521;-63
2022/01/01 09:51:21;;;;;;;49.53;22.02;;;;;;;;;;5069592;28;20048;-63
2022/01/01 09:53:48;;;;;;;46.78;20.48;;;;;;;;;;5069839;28;20041;-63
2022/01/01 09:56:14;;;;;;;41.72;19.65;;;;;;;;;;5070167;28;20042;-63
2022/01/01 09:58:40;;;;;;;45.05;18.83;;;;;;;;;;5069425;28;20040;-63
2022/01/01 10:01:07;;;;;;;39.25;17.67;;;;;;;;;;5070096;28;20394;-63
2022/01/01 10:03:37;;;;;;;34.95;17.10;;;;;;;;;;5070077;28;20399;-63
2022/01/01 10:06:12;;;;;;;41.17;17.20;;;;;;;;;;5069369;28;20060;-63
2022/01/01 10:08:39;;;;;;;34.90;16.67;;;;;;;;;;5069919;28;20044;-63
2022/01/01 10:11:06;;;;;;;34.05;15.57;;;;;;;;;;5069953;28;20044;-63
2022/01/01 10:13:38;;;;;;;35.17;15.32;;;;;;;;;;5069120;28;20450;-63
2022/01/01 10:16:07;;;;;;;34.03;15.35;;;;;;;;;;5069990;28;20404;-63
2022/01/01 10:18:35;;;;;;;30.40;14.30;;;;;;;;;;5069957;28;20379;-63
2022/01/01 10:21:12;;;;;;;32.35;14.55;;;;;;;;;;5068956;28;20491;-63
2022/01/01 10:23:39;;;;;;;34.58;14.15;;;;;;;;;;5069529;28;20056;-63
2022/01/01 10:29:08;;;;;;;28.80;12.50;;;;;;;;;;5069683;28;20105;-63
2022/01/01 10:31:35;;;;;;;22.08;11.43;;;;;;;;;;5073573;28;20116;-63
2022/01/01 10:34:01;;;;;;;25.60;11.85;;;;;;;;;;5073375;28;20068;-63
2022/01/01 10:36:30;;;;;;;28.63;11.18;;;;;;;;;;5072828;28;20076;-63
2022/01/01 10:39:06;;;;;;;26.63;11.20;;;;;;;;;;5073486;28;20045;-63
2022/01/01 10:41:42;;;;;;;26.88;11.23;;;;;;;;;;5073239;28;20094;-63
2022/01/01 10:44:08;;;;;;;30.98;10.20;;;;;;;;;;5072522;28;20123;-63
2022/01/01 10:46:36;;;;;;;23.50;9.90;;;;;;;;;;5073129;28;20051;-63
2022/01/01 10:49:30;;;;;;;21.42;9.50;;;;;;;;;;5073172;28;20048;-63
2022/01/01 10:51:56;;;;;;;22.92;10.02;;;;;;;;;;5105015;28;20052;-63
2022/01/01 10:54:25;;;;;;;21.92;9.15;;;;;;;;;;5073282;28;20474;-67
2022/01/01 10:56:51;;;;;;;26.15;8.85;;;;;;;;;;5072886;28;20041;-63
2022/01/01 10:59:29;;;;;;;21.50;8.45;;;;;;;;;;5072526;28;20071;-63
2022/01/01 11:01:58;;;;;;;16.80;7.57;;;;;;;;;;5072882;28;20558;-63
2022/01/01 11:04:24;;;;;;;21.13;8.93;;;;;;;;;;5072837;28;20074;-63
2022/01/01 11:06:50;;;;;;;20.45;7.47;;;;;;;;;;5072006;28;20041;-63
2022/01/01 11:09:17;;;;;;;21.38;8.35;;;;;;;;;;5072860;28;20447;-63
2022/01/01 11:11:43;;;;;;;24.50;7.93;;;;;;;;;;5072592;28;20048;-63
2022/01/01 11:14:10;;;;;;;22.85;8.43;;;;;;;;;;5072255;28;20063;-63
2022/01/01 11:16:37;;;;;;;19.48;7.97;;;;;;;;;;5072852;28;20044;-63
2022/01/01 11:19:03;;;;;;;16.02;8.10;;;;;;;;;;5072775;28;20055;-63
2022/01/01 11:21:29;;;;;;;20.42;8.20;;;;;;;;;;5072233;28;20040;-63
2022/01/01 11:23:55;;;;;;;17.42;7.72;;;;;;;;;;5072490;28;20053;-63
2022/01/01 11:26:21;;;;;;;18.88;7.68;;;;;;;;;;5063253;28;20037;-63
2022/01/01 11:28:47;;;;;;;18.08;8.18;;;;;;;;;;5052104;28;20779;-63
2022/01/01 11:31:16;;;;;;;19.20;8.25;;;;;;;;;;5052405;28;20123;-63
2022/01/01 11:33:43;;;;;;;21.75;8.05;;;;;;;;;;5052217;28;20037;-63
2022/01/01 11:36:18;;;;;;;15.10;7.70;;;;;;;;;;5051420;28;20037;-63
2022/01/01 11:38:44;;;;;;;22.88;7.35;;;;;;;;;;5052559;28;20037;-63
2022/01/01 11:41:15;;;;;;;19.73;7.82;;;;;;;;;;5051639;28;20051;-63
2022/01/01 11:43:46;;;;;;;16.55;6.90;;;;;;;;;;5051328;28;20041;-63
2022/01/01 11:46:16;;;;;;;19.77;7.15;;;;;;;;;;5052268;28;20040;-63
2022/01/01 11:48:43;;;;;;;20.27;7.72;;;;;;;;;;5052366;28;20044;-63
2022/01/01 11:51:18;;;;;;;21.27;6.78;;;;;;;;;;5051623;28;20416;-63
2022/01/01 11:54:02;;;;;;;14.88;6.97;;;;;;;;;;5051964;28;20049;-63
2022/01/01 11:56:29;;;;;;;16.58;6.93;;;;;;;;;;5052010;28;20040;-63
2022/01/01 11:58:55;;;;;;;16.15;6.60;;;;;;;;;;5051684;28;20450;-63
2022/01/01 12:01:22;;;;;;;19.23;6.90;;;;;;;;;;5052122;28;20045;-63
2022/01/01 12:03:50;;;;;;;15.10;6.63;;;;;;;;;;5051962;28;20055;-63
2022/01/01 12:06:16;;;;;;;15.18;6.53;;;;;;;;;;5051308;28;20098;-63
2022/01/01 12:08:43;;;;;;;14.07;6.18;;;;;;;;;;5051775;28;20076;-63
2022/01/01 12:11:09;;;;;;;14.50;6.30;;;;;;;;;;5051627;28;20047;-63
2022/01/01 12:13:35;;;;;;;18.45;6.78;;;;;;;;;;5050970;28;20033;-63
2022/01/01 12:16:20;;;;;;;17.15;6.00;;;;;;;;;;5051524;28;20044;-63
2022/01/01 12:18:46;;;;;;;19.75;7.28;;;;;;;;;;5050966;28;20059;-63
2022/01/01 12:21:19;;;;;;;16.88;6.75;;;;;;;;;;5051814;28;20049;-63
2022/01/01 12:23:47;;;;;;;12.32;6.30;;;;;;;;;;5051248;28;20418;-63
2022/01/01 12:26:14;;;;;;;15.68;6.28;;;;;;;;;;5059070;28;20407;-63
2022/01/01 12:28:43;;;;;;;19.45;7.05;;;;;;;;;;5071207;28;20044;-63
2022/01/01 12:31:14;;;;;;;14.15;6.53;;;;;;;;;;5071323;28;20040;-63
2022/01/01 12:33:48;;;;;;;14.02;5.72;;;;;;;;;;5070577;28;20483;-63
2022/01/01 12:36:14;;;;;;;18.48;6.60;;;;;;;;;;5071388;28;20045;-63
2022/01/01 12:38:40;;;;;;;14.43;7.35;;;;;;;;;;5070940;28;20032;-63
2022/01/01 12:41:26;;;;;;;17.65;6.40;;;;;;;;;;5070162;28;20448;-63
2022/01/01 12:43:55;;;;;;;12.18;6.32;;;;;;;;;;5070156;28;20048;-63
2022/01/01 12:46:23;;;;;;;12.70;6.32;;;;;;;;;;5070703;28;20258;-63
2022/01/01 12:48:49;;;;;;;14.00;5.75;;;;;;;;;;5070410;28;20487;-63
2022/01/01 12:51:18;;;;;;;13.40;6.15;;;;;;;;;;5071126;28;20041;-63
2022/01/01 12:53:44;;;;;;;15.82;6.53;;;;;;;;;;5070167;28;20479;-63
2022/01/01 12:56:12;;;;;;;13.05;6.03;;;;;;;;;;5070545;28;20040;-63
2022/01/01 12:58:38;;;;;;;11.48;6.13;;;;;;;;;;5070991;28;20480;-63
2022/01/01 13:01:08;;;;;;;12.18;6.13;;;;;;;;;;5070911;28;20123;-63
2022/01/01 13:03:34;;;;;;;16.80;6.22;;;;;;;;;;5070149;28;20048;-63
2022/01/01 13:06:00;;;;;;;12.95;6.50;;;;;;;;;;5070819;28;20072;-63
2022/01/01 13:08:26;;;;;;;17.80;6.00;;;;;;;;;;5070734;28;20525;-63
2022/01/01 13:10:52;;;;;;;15.55;6.28;;;;;;;;;;5069914;28;20047;-63
2022/01/01 13:13:19;;;;;;;14.45;6.20;;;;;;;;;;5070774;28;20036;-63
2022/01/01 13:15:45;;;;;;;12.77;6.30;;;;;;;;;;5070822;28;20216;-63
2022/01/01 13:18:11;;;;;;;13.52;6.45;;;;;;;;;;5070044;28;20032;-63
2022/01/01 13:20:37;;;;;;;15.85;6.38;;;;;;;;;;5070588;28;20048;-63
2022/01/01 13:23:05;;;;;;;14.40;6.20;;;;;;;;;;5070485;28;20387;-63
2022/01/01 13:25:31;;;;;;;13.00;6.78;;;;;;;;;;5069833;28;20048;-63
2022/01/01 13:27:58;;;;;;;13.85;5.95;;;;;;;;;;5070381;28;20306;-63
2022/01/01 13:30:25;;;;;;;12.85;6.80;;;;;;;;;;5070346;28;20037;-63
2022/01/01 13:32:51;;;;;;;16.08;6.97;;;;;;;;;;5069587;28;20036;-63
2022/01/01 13:35:27;;;;;;;12.65;6.03;;;;;;;;;;5070327;28;20032;-63
2022/01/01 13:37:54;;;;;;;16.60;6.85;;;;;;;;;;5070026;28;20044;-63
2022/01/01 13:40:20;;;;;;;16.20;6.95;;;;;;;;;;5069421;28;20036;-63
2022/01/01 13:42:46;;;;;;;14.90;6.90;;;;;;;;;;5070148;28;20045;-63
2022/01/01 13:45:12;;;;;;;14.40;6.57;;;;;;;;;;5069960;28;20131;-63
2022/01/01 13:47:39;;;;;;;12.70;6.82;;;;;;;;;;5069451;28;20086;-63
2022/01/01 13:50:13;;;;;;;19.42;8.10;;;;;;;;;;5070193;28;20044;-63
2022/01/01 13:52:40;;;;;;;18.20;7.55;;;;;;;;;;5068518;28;20103;-63
2022/01/01 13:55:08;;;;;;;16.10;7.63;;;;;;;;;;5069261;28;20052;-63
2022/01/01 13:57:38;;;;;;;17.38;7.20;;;;;;;;;;5070261;28;20402;-63
2022/01/01 14:00:05;;;;;;;16.27;7.35;;;;;;;;;;5070194;28;20044;-63
2022/01/01 14:02:32;;;;;;;13.20;6.57;;;;;;;;;;5069401;28;20036;-63
2022/01/01 14:05:02;;;;;;;16.40;7.20;;;;;;;;;;5072020;28;20395;-63
2022/01/01 14:07:28;;;;;;;15.70;7.45;;;;;;;;;;5073774;28;20402;-63
2022/01/01 14:10:10;;;;;;;14.13;6.90;;;;;;;;;;5073360;28;20540;-63
2022/01/01 14:12:40;;;;;;;14.05;7.63;;;;;;;;;;5073845;28;20123;-63
2022/01/01 14:15:08;;;;;;;15.82;7.22;;;;;;;;;;5074088;28;20380;-63
2022/01/01 14:17:54;;;;;;;15.68;7.20;;;;;;;;;;5073492;28;20119;-63
2022/01/01 14:20:21;;;;;;;13.27;7.45;;;;;;;;;;5073565;28;20048;-63
2022/01/01 14:22:47;;;;;;;17.38;7.80;;;;;;;;;;5073447;28;20482;-63